»·PEaware :: N989MA KAPV-KBFL

N989MA :: KAPV-KBFL

FLIGHT INFORMATION

Flight Status: Arrived
Operator: Privately registered:
United States
More flights under this callsign
Pilot: Terry F. (30390)
Aircraft: MOONEY M-20 201 202 205 220 ATS MSE
(M20P)
More flights by this aircraft type
Origin: KAPV Apple Valley
United States
Destination: KBFL Meadows
United States
More flights between these airports :: More routes between these airports
Route: +KAPV V386 PMD FASTO2 KBFL
File this flight plan on PilotEdge
Remarks:
Altitude:
(Current/Filed)
12,000ft
Speed:
(Current/Filed)
150kts
Departed: 22-Nov-20 08:11 PM
Arrived: 22-Nov-20 09:19 PM
Distance/Time
Traveled:
105nm/1:07
Distance/Time
To Go:
Arrived

Flight Plot

Page will automatically refresh every two minutes.

Flight plan parsing failed; only flown route is shown


Map Options




Map Legend


Flown Route
Filed Route
Departure Airport
Arrival Airport
Navaid (VOR, NDB)
Fix

Horizontal Profiles

Position Reports

Time Latitude Longitude Heading Altitude Ground
Speed
22-Nov-20 19:53 34.574337 -117.189128 89 3064ft 0kts
22-Nov-20 19:54 34.574337 -117.189128 89 3064ft 0kts
22-Nov-20 19:55 34.574337 -117.189128 89 3064ft 0kts
22-Nov-20 19:56 34.574337 -117.189128 89 3064ft 0kts
22-Nov-20 19:57 34.574337 -117.189128 89 3064ft 0kts
22-Nov-20 19:58 34.574337 -117.189128 89 3064ft 0kts
22-Nov-20 19:59 34.574337 -117.189128 89 3064ft 0kts
22-Nov-20 20:00 34.574337 -117.189128 89 3064ft 0kts
22-Nov-20 20:01 34.574337 -117.189128 89 3064ft 0kts
22-Nov-20 20:02 34.574337 -117.189128 89 3064ft 0kts
22-Nov-20 20:03 34.574229 -117.188808 128 3064ft 3kts
22-Nov-20 20:04 34.572235 -117.189257 199 3064ft 11kts
22-Nov-20 20:05 34.570721 -117.189466 107 3064ft 0kts
22-Nov-20 20:06 34.570721 -117.189466 107 3064ft 0kts
22-Nov-20 20:07 34.570721 -117.189466 107 3064ft 0kts
22-Nov-20 20:08 34.570721 -117.189466 107 3064ft 0kts
22-Nov-20 20:09 34.570586 -117.188952 98 3064ft 13kts
22-Nov-20 20:10 34.587285 -117.181850 18 3704ft 85kts
22-Nov-20 20:11 34.601999 -117.158872 93 4761ft 121kts
22-Nov-20 20:12 34.598686 -117.115406 92 5782ft 134kts
22-Nov-20 20:13 34.595166 -117.070626 92 6766ft 126kts
22-Nov-20 20:14 34.591800 -117.030991 92 7732ft 111kts
22-Nov-20 20:15 34.587560 -116.989693 110 8089ft 147kts
22-Nov-20 20:16 34.563148 -116.950955 164 8469ft 147kts
22-Nov-20 20:17 34.525510 -116.943924 228 8920ft 137kts
22-Nov-20 20:18 34.533543 -116.984656 286 9365ft 131kts
22-Nov-20 20:19 34.539900 -117.024281 276 10206ft 105kts
22-Nov-20 20:20 34.542465 -117.054905 272 11143ft 76kts
22-Nov-20 20:21 34.544246 -117.082295 273 11674ft 87kts
22-Nov-20 20:22 34.546268 -117.114191 274 12035ft 111kts
22-Nov-20 20:23 34.549388 -117.157262 276 12028ft 139kts
22-Nov-20 20:24 34.554089 -117.206643 276 12027ft 153kts
22-Nov-20 20:25 34.558908 -117.258839 276 12026ft 156kts
22-Nov-20 20:26 34.554126 -117.309773 268 12023ft 157kts
22-Nov-20 20:27 34.561748 -117.361889 278 12026ft 157kts
22-Nov-20 20:28 34.567593 -117.414639 277 12026ft 157kts
22-Nov-20 20:29 34.572990 -117.467324 277 12026ft 157kts
22-Nov-20 20:30 34.578315 -117.520134 277 12025ft 157kts
22-Nov-20 20:31 34.583600 -117.572863 277 12025ft 157kts
22-Nov-20 20:32 34.588875 -117.625735 277 12025ft 157kts
22-Nov-20 20:33 34.594128 -117.678639 276 12026ft 158kts
22-Nov-20 20:34 34.599356 -117.731502 276 12023ft 158kts
22-Nov-20 20:35 34.604578 -117.784560 276 12020ft 158kts
22-Nov-20 20:36 34.609772 -117.837585 276 12017ft 158kts
22-Nov-20 20:37 34.614936 -117.890552 276 12018ft 159kts
22-Nov-20 20:38 34.620237 -117.944940 276 12019ft 164kts
22-Nov-20 20:39 34.625608 -118.000404 277 11995ft 167kts
22-Nov-20 20:40 34.633929 -118.058846 299 11501ft 182kts
22-Nov-20 20:41 34.665884 -118.107114 309 11035ft 184kts
22-Nov-20 20:42 34.699200 -118.151191 310 11023ft 172kts
22-Nov-20 20:43 34.731506 -118.193359 310 11021ft 169kts
22-Nov-20 20:44 34.763671 -118.235294 310 11017ft 169kts
22-Nov-20 20:45 34.795658 -118.277030 310 11015ft 169kts
22-Nov-20 20:46 34.827584 -118.318737 310 11016ft 168kts
22-Nov-20 20:47 34.859497 -118.360476 310 11028ft 168kts
22-Nov-20 20:48 34.890856 -118.401546 310 11233ft 159kts
22-Nov-20 20:49 34.919917 -118.439723 310 11715ft 149kts
22-Nov-20 20:50 34.947975 -118.476600 310 12089ft 153kts
22-Nov-20 20:51 34.978363 -118.516462 310 12101ft 164kts
22-Nov-20 20:52 35.009668 -118.557591 310 12109ft 166kts
22-Nov-20 20:53 35.042901 -118.597171 314 12107ft 166kts
22-Nov-20 20:54 35.076854 -118.635421 314 12105ft 166kts
22-Nov-20 20:55 35.094970 -118.686171 287 11939ft 168kts
22-Nov-20 20:56 35.109472 -118.741420 287 11322ft 174kts
22-Nov-20 20:57 35.121834 -118.795373 285 10605ft 143kts
22-Nov-20 20:58 35.130377 -118.839493 285 9898ft 129kts
22-Nov-20 20:59 35.137985 -118.882691 285 9131ft 132kts
22-Nov-20 21:00 35.145224 -118.927300 285 8340ft 135kts
22-Nov-20 21:01 35.152321 -118.972853 285 7549ft 138kts
22-Nov-20 21:02 35.163689 -119.014798 342 6997ft 113kts
22-Nov-20 21:03 35.185425 -118.989419 54 6363ft 131kts
22-Nov-20 21:04 35.206470 -118.949166 54 5582ft 145kts
22-Nov-20 21:05 35.228469 -118.908233 54 5002ft 134kts
22-Nov-20 21:07 35.248591 -118.874717 45 4914ft 121kts
22-Nov-20 21:08 35.271952 -118.844050 44 4404ft 112kts
22-Nov-20 21:09 35.294106 -118.815911 42 3482ft 120kts
22-Nov-20 21:10 35.306754 -118.833656 232 3326ft 123kts
22-Nov-20 21:11 35.303189 -118.877971 283 3101ft 140kts
22-Nov-20 21:12 35.319003 -118.916254 308 2838ft 123kts
22-Nov-20 21:13 35.342532 -118.946166 318 2500ft 113kts
22-Nov-20 21:14 35.362916 -118.970811 317 2348ft 95kts
22-Nov-20 21:15 35.381735 -118.993492 317 1872ft 97kts
22-Nov-20 21:16 35.399620 -119.015032 317 1390ft 82kts
22-Nov-20 21:17 35.415665 -119.034341 316 959ft 80kts
22-Nov-20 21:18 35.430821 -119.052657 317 554ft 73kts
22-Nov-20 21:19 35.440645 -119.062876 47 496ft 14kts
22-Nov-20 21:20 35.440780 -119.062685 58 497ft 5kts
22-Nov-20 21:21 35.437613 -119.056817 100 496ft 20kts
22-Nov-20 21:22 35.434834 -119.053103 89 497ft 0kts

Navigation Log

Ident Type
Flight plan parsing failed, navigation log unavailable